Terminal Aerodrome Forecast
Issued by NWS Sterling, VA

Home | Current Version | Previous Version | Text Only | Print | Product List | Glossary On
Versions: 1 2 3 4 5 6 7 8 9 10 11 12 13 14
237
FTUS41 KLWX 161129
TAFMRB
TAF
KMRB 161129Z 1612/1712 00000KT P6SM OVC025
     FM162300 VRB03KT P6SM OVC008=

USA.gov is the U.S. government's official web portal to all federal, state and local government web resources and services.